createdAt,value
2023-05-02T06:36:02.953Z,39.82
2023-05-02T06:37:06.435Z,39.55
2023-05-02T06:38:08.945Z,39.53
2023-05-02T06:39:12.295Z,40.61
2023-05-02T06:40:14.866Z,39.80
2023-05-02T06:41:18.393Z,39.40
2023-05-02T06:42:21.500Z,39.60
2023-05-02T06:43:23.906Z,39.53
2023-05-02T06:44:26.214Z,40.17
2023-05-02T06:45:28.477Z,39.77
2023-05-02T06:46:30.978Z,39.62
2023-05-02T06:47:33.438Z,40.46
2023-05-02T06:48:35.849Z,40.94
2023-05-02T06:49:38.701Z,40.44
2023-05-02T06:50:42.596Z,40.54
2023-05-02T06:51:45.646Z,39.70
2023-05-02T06:52:47.940Z,39.65
2023-05-02T06:53:50.383Z,40.33
2023-05-02T06:54:53.191Z,40.06
2023-05-02T06:55:55.531Z,40.03
2023-05-02T06:56:58.706Z,39.35
2023-05-02T06:58:01.165Z,39.13
2023-05-02T06:59:03.784Z,38.92
2023-05-02T07:00:08.028Z,38.63
2023-05-02T07:01:10.374Z,40.19
2023-05-02T07:02:12.824Z,39.42
2023-05-02T07:03:15.416Z,39.59
2023-05-02T07:04:17.819Z,38.88
2023-05-02T07:05:20.246Z,37.93
2023-05-02T07:06:23.649Z,39.23
2023-05-02T07:07:26.161Z,38.99
2023-05-02T07:08:28.953Z,37.02
2023-05-02T07:09:31.264Z,37.10
2023-05-02T07:10:33.685Z,36.93
2023-05-02T07:11:36.022Z,36.46
2023-05-02T07:12:39.526Z,37.41
2023-05-02T07:13:42.896Z,36.41
2023-05-02T07:14:45.284Z,36.19
2023-05-02T07:15:48.168Z,36.23
2023-05-02T07:16:51.262Z,35.91
2023-05-02T07:17:54.387Z,35.54
2023-05-02T07:18:56.974Z,35.62
2023-05-02T07:19:59.371Z,36.12
2023-05-02T07:21:01.870Z,36.39
2023-05-02T07:22:05.394Z,37.08
2023-05-02T07:23:09.379Z,36.24
2023-05-02T07:24:14.391Z,37.39
2023-05-02T07:25:16.733Z,36.65
2023-05-02T07:26:19.162Z,36.04
2023-05-02T07:27:21.472Z,36.11
2023-05-02T07:28:24.386Z,36.08
2023-05-02T07:29:27.355Z,36.70
2023-05-02T07:30:30.022Z,36.67
2023-05-02T07:31:32.389Z,36.10
2023-05-02T07:32:34.871Z,36.06
2023-05-02T07:33:37.918Z,35.61
2023-05-02T07:34:40.666Z,35.19
2023-05-02T07:35:43.663Z,35.75
2023-05-02T07:36:46.218Z,36.57
2023-05-02T07:37:48.496Z,35.83
2023-05-02T07:38:50.883Z,35.85
2023-05-02T07:39:53.328Z,35.44
2023-05-02T07:40:58.644Z,35.20
2023-05-02T07:42:00.933Z,35.74
2023-05-02T07:43:04.323Z,35.63
2023-05-02T07:44:06.688Z,34.90
2023-05-02T07:45:09.897Z,34.97
2023-05-02T07:46:12.515Z,34.08
2023-05-02T07:47:15.270Z,33.88
2023-05-02T07:48:17.694Z,34.12
2023-05-02T07:49:20.180Z,33.90
2023-05-02T07:50:23.323Z,33.87
2023-05-02T07:51:25.698Z,34.61
2023-05-02T07:52:30.132Z,34.43
2023-05-02T07:53:32.481Z,34.89
2023-05-02T07:54:34.769Z,34.35
2023-05-02T07:55:37.097Z,33.96
2023-05-02T07:56:39.656Z,34.64
2023-05-02T07:57:41.991Z,34.00
2023-05-02T07:58:44.361Z,34.57
2023-05-02T07:59:47.952Z,35.02
2023-05-02T08:00:50.795Z,35.20
2023-05-02T08:01:53.161Z,34.78
2023-05-02T08:02:56.616Z,33.75
2023-05-02T08:03:59.403Z,34.09
2023-05-02T08:05:02.884Z,33.44
2023-05-02T08:06:05.483Z,34.13
2023-05-02T08:07:07.885Z,33.50
2023-05-02T08:08:10.215Z,33.20
2023-05-02T08:09:13.889Z,33.42
2023-05-02T08:10:16.351Z,33.35
2023-05-02T08:11:18.752Z,33.78
2023-05-02T08:12:21.097Z,33.66
2023-05-02T08:13:23.353Z,33.27
2023-05-02T08:14:25.673Z,34.18
2023-05-02T08:15:28.885Z,34.31
2023-05-02T08:16:31.508Z,34.61
2023-05-02T08:17:33.990Z,34.77
2023-05-02T08:18:37.138Z,33.56
2023-05-02T08:19:39.527Z,32.95
2023-05-02T08:20:43.605Z,34.52
2023-05-02T08:21:46.468Z,33.80
2023-05-02T08:22:48.750Z,33.96
2023-05-02T08:23:51.460Z,33.30
2023-05-02T08:24:55.136Z,31.61
2023-05-02T08:25:58.215Z,31.61
2023-05-02T08:27:00.652Z,31.69
2023-05-02T08:28:03.193Z,31.11
2023-05-02T08:29:07.747Z,32.21
2023-05-02T08:30:12.415Z,31.78
2023-05-02T08:31:14.870Z,32.11
2023-05-02T08:32:17.815Z,31.72
2023-05-02T08:33:20.340Z,32.89
2023-05-02T08:34:22.599Z,32.77
2023-05-02T08:35:25.149Z,32.10
2023-05-02T08:36:27.365Z,32.30
2023-05-02T08:37:29.824Z,32.32
2023-05-02T08:38:32.233Z,32.35
2023-05-02T08:39:35.030Z,32.33
2023-05-02T08:40:42.444Z,32.95
2023-05-02T08:41:43.140Z,33.36
2023-05-02T08:42:45.572Z,32.41
2023-05-02T08:43:48.077Z,32.91
2023-05-02T08:44:51.208Z,33.26
2023-05-02T08:45:55.882Z,32.86
2023-05-02T08:47:00.308Z,31.70
2023-05-02T08:48:08.125Z,31.80
2023-05-02T08:49:10.906Z,31.79
2023-05-02T08:50:16.570Z,31.37
2023-05-02T08:52:22.705Z,31.54
2023-05-02T08:53:26.356Z,32.03
2023-05-02T08:54:29.903Z,31.32
2023-05-02T08:55:34.457Z,31.57
2023-05-02T08:57:47.391Z,31.72
2023-05-02T08:58:49.713Z,31.43
2023-05-02T08:59:52.384Z,30.75
2023-05-02T09:00:56.499Z,31.08
2023-05-02T09:02:02.445Z,31.61
2023-05-02T09:03:27.218Z,31.15
2023-05-02T09:04:31.841Z,31.25
2023-05-02T09:05:41.655Z,32.46
2023-05-02T09:06:44.121Z,30.51
2023-05-02T09:07:48.597Z,32.21
2023-05-02T09:08:52.254Z,32.58
2023-05-02T09:09:55.187Z,32.26
2023-05-02T09:10:57.868Z,32.36
2023-05-02T09:12:00.238Z,31.64
2023-05-02T09:13:28.297Z,31.26
2023-05-02T09:14:30.767Z,31.24
2023-05-02T09:15:33.179Z,32.10
2023-05-02T09:16:38.288Z,31.32
2023-05-02T09:17:45.730Z,31.40
2023-05-02T09:18:50.996Z,31.69
2023-05-02T09:20:03.388Z,32.87
2023-05-02T09:21:10.582Z,31.17
2023-05-02T09:22:17.059Z,32.19
2023-05-02T09:23:19.349Z,31.34
2023-05-02T09:24:22.241Z,30.92
2023-05-02T09:25:25.047Z,30.55
2023-05-02T09:26:31.623Z,30.83
2023-05-02T09:27:54.754Z,30.14
2023-05-02T09:28:59.174Z,30.87
2023-05-02T09:30:21.162Z,31.11
2023-05-02T09:31:49.505Z,31.17
2023-05-02T09:32:47.240Z,31.43
2023-05-02T09:33:49.550Z,31.95
2023-05-02T09:36:19.679Z,33.47
2023-05-02T09:38:48.299Z,31.15
2023-05-02T09:39:54.488Z,31.67
2023-05-02T09:40:56.971Z,32.04
2023-05-02T09:41:59.464Z,31.87
2023-05-02T09:43:16.002Z,31.32
2023-05-02T09:44:20.413Z,31.14
2023-05-02T09:45:24.851Z,31.36
2023-05-02T09:46:31.087Z,30.43
2023-05-02T09:47:33.586Z,30.99
2023-05-02T09:48:56.301Z,30.91
2023-05-02T09:49:59.149Z,30.97
2023-05-02T09:51:01.729Z,32.06
2023-05-02T09:52:16.864Z,31.28
2023-05-02T09:53:19.516Z,31.56
2023-05-02T09:55:44.968Z,31.12
2023-05-02T09:56:57.532Z,31.49
2023-05-02T09:58:00.679Z,30.83
2023-05-02T10:00:25.024Z,31.47
2023-05-02T10:01:27.540Z,30.96
2023-05-02T10:02:31.538Z,31.10
2023-05-02T10:03:37.427Z,30.81
2023-05-02T10:04:41.631Z,31.01
2023-05-02T10:05:47.433Z,31.06
2023-05-02T10:06:53.016Z,31.53
2023-05-02T10:07:55.971Z,30.84
2023-05-02T10:08:58.814Z,31.74
2023-05-02T10:10:02.237Z,31.57
2023-05-02T10:11:07.907Z,31.70
2023-05-02T10:12:13.890Z,31.36
2023-05-02T10:13:18.585Z,30.42
2023-05-02T10:14:23.768Z,30.33
2023-05-02T10:15:28.651Z,31.59
2023-05-02T10:16:35.016Z,31.94
2023-05-02T10:17:41.278Z,31.97
2023-05-02T10:18:47.262Z,32.32
2023-05-02T10:19:59.899Z,31.67
2023-05-02T10:22:19.570Z,31.67
2023-05-02T10:23:27.652Z,33.35
2023-05-02T10:24:32.243Z,32.41
2023-05-02T10:25:35.022Z,30.95
2023-05-02T10:26:38.399Z,31.20
2023-05-02T10:27:41.250Z,30.75
2023-05-02T10:28:44.297Z,31.75
2023-05-02T10:29:47.068Z,31.09
2023-05-02T10:30:50.166Z,30.39
2023-05-02T10:31:53.792Z,31.27
2023-05-02T10:32:59.722Z,29.86
2023-05-02T10:34:04.584Z,30.48
2023-05-02T10:35:07.785Z,31.01
2023-05-02T10:36:11.657Z,29.56
2023-05-02T10:37:16.489Z,30.25
2023-05-02T10:38:22.551Z,30.56
2023-05-02T10:39:27.623Z,30.03
2023-05-02T10:40:30.982Z,30.48
2023-05-02T10:41:34.936Z,32.09
2023-05-02T10:42:40.695Z,32.69
2023-05-02T10:43:46.649Z,31.36
2023-05-02T10:44:50.520Z,30.64
2023-05-02T10:45:53.718Z,31.67
2023-05-02T10:46:57.474Z,31.70
2023-05-02T10:48:14.718Z,31.77
2023-05-02T10:49:17.291Z,31.61
2023-05-02T10:50:28.151Z,30.59
2023-05-02T10:51:32.674Z,30.03
2023-05-02T10:52:38.502Z,29.75
2023-05-02T10:53:41.043Z,30.25
2023-05-02T10:54:43.515Z,30.37
2023-05-02T10:55:48.328Z,29.82
2023-05-02T10:57:03.652Z,30.31
2023-05-02T10:58:10.315Z,31.37
2023-05-02T11:00:39.200Z,30.55
2023-05-02T11:01:41.648Z,32.22
2023-05-02T11:02:48.658Z,32.41
2023-05-02T11:03:56.746Z,31.25
2023-05-02T11:05:07.147Z,30.70
2023-05-02T11:06:09.971Z,31.13
2023-05-02T11:07:18.659Z,29.85
2023-05-02T11:08:24.494Z,31.42
2023-05-02T11:09:31.035Z,30.44
2023-05-02T11:10:35.112Z,30.68
2023-05-02T11:11:44.714Z,29.51
2023-05-02T11:12:54.770Z,31.28
2023-05-02T11:13:57.324Z,30.62
2023-05-02T11:15:00.658Z,29.21
2023-05-02T11:16:04.203Z,29.65
2023-05-02T11:17:10.333Z,28.89
2023-05-02T11:18:13.686Z,28.90
2023-05-02T11:19:16.085Z,28.77
2023-05-02T11:20:18.926Z,28.04
2023-05-02T11:21:30.350Z,27.96
2023-05-02T11:22:33.945Z,28.68
2023-05-02T11:23:36.379Z,29.17
2023-05-02T11:24:43.634Z,28.56
2023-05-02T11:25:47.770Z,29.23
2023-05-02T11:26:51.001Z,28.92
2023-05-02T11:27:54.019Z,28.47
2023-05-02T11:28:57.496Z,28.21
2023-05-02T11:31:31.674Z,29.02
2023-05-02T11:32:49.895Z,29.19
2023-05-02T11:34:00.117Z,28.53
2023-05-02T11:35:03.166Z,29.03
2023-05-02T11:36:05.936Z,28.79
2023-05-02T11:37:13.060Z,28.90
2023-05-02T11:38:16.837Z,28.96
2023-05-02T11:39:21.464Z,29.28
2023-05-02T11:40:25.680Z,29.73
2023-05-02T11:42:51.386Z,29.21
2023-05-02T11:43:57.349Z,28.81
2023-05-02T11:45:01.490Z,29.37
2023-05-02T11:46:06.239Z,28.88
2023-05-02T11:47:09.286Z,28.85
2023-05-02T11:48:15.515Z,29.10
2023-05-02T11:49:17.974Z,29.80
2023-05-02T11:50:20.352Z,28.91
2023-05-02T11:51:24.051Z,28.96
2023-05-02T11:52:26.765Z,27.53
2023-05-02T11:53:29.644Z,27.69
2023-05-02T11:54:32.312Z,28.15
2023-05-02T11:55:36.192Z,28.48
2023-05-02T11:56:39.997Z,28.05
2023-05-02T11:57:42.871Z,28.20
2023-05-02T11:58:45.299Z,27.95
2023-05-02T11:59:56.448Z,27.40
2023-05-02T12:01:02.066Z,27.14
2023-05-02T12:02:04.432Z,28.02
2023-05-02T12:03:08.060Z,27.99
2023-05-02T12:04:10.522Z,27.07
2023-05-02T12:05:14.502Z,27.13
2023-05-02T12:06:18.995Z,27.05
2023-05-02T12:07:25.559Z,27.29
2023-05-02T12:08:28.549Z,27.28
2023-05-02T12:09:30.939Z,27.34
2023-05-02T12:10:37.533Z,27.07
2023-05-02T12:11:40.995Z,27.59
2023-05-02T12:12:44.571Z,28.02
2023-05-02T12:13:48.984Z,28.00
2023-05-02T12:14:51.966Z,27.33
2023-05-02T12:15:54.959Z,27.39
2023-05-02T12:16:58.682Z,26.88
2023-05-02T12:18:01.791Z,26.69
2023-05-02T12:19:04.572Z,27.39
2023-05-02T12:20:09.355Z,27.41
2023-05-02T12:21:12.511Z,26.87
2023-05-02T12:22:15.673Z,26.37
2023-05-02T12:24:30.420Z,27.62
2023-05-02T12:25:38.289Z,27.10
2023-05-02T12:26:41.162Z,26.94
2023-05-02T12:28:00.862Z,27.47
2023-05-02T12:29:03.935Z,28.22
2023-05-02T12:30:07.829Z,27.09
2023-05-02T12:31:10.543Z,27.55
2023-05-02T12:32:14.866Z,27.74
2023-05-02T12:33:17.719Z,28.14
2023-05-02T12:34:33.329Z,27.65
2023-05-02T12:35:35.639Z,28.00
2023-05-02T12:37:50.522Z,27.38
2023-05-02T12:38:54.887Z,26.73
2023-05-02T12:39:58.291Z,26.48
2023-05-02T12:41:00.986Z,27.58
2023-05-02T12:42:13.199Z,26.58
2023-05-02T12:43:19.249Z,26.74
2023-05-02T12:44:39.541Z,27.14
2023-05-02T12:45:42.358Z,27.74
2023-05-02T12:48:20.175Z,26.16
2023-05-02T12:49:25.425Z,26.73
2023-05-02T12:50:37.985Z,26.38
2023-05-02T12:51:41.335Z,26.41
2023-05-02T12:52:51.593Z,26.54
2023-05-02T12:53:53.899Z,26.01
2023-05-02T12:54:59.845Z,26.41
2023-05-02T12:56:03.206Z,26.38
2023-05-02T12:57:05.694Z,27.56
2023-05-02T12:58:10.171Z,26.12
2023-05-02T13:00:42.868Z,26.17
2023-05-02T13:01:46.942Z,27.35
2023-05-02T13:02:49.233Z,27.42
2023-05-02T13:03:52.192Z,26.94
2023-05-02T13:04:56.636Z,27.06
2023-05-02T13:05:59.036Z,27.23
2023-05-02T13:07:01.911Z,26.28
2023-05-02T13:08:04.691Z,27.05
2023-05-02T13:09:06.905Z,26.29
2023-05-02T13:10:10.401Z,25.90
2023-05-02T13:11:13.130Z,26.12
2023-05-02T13:12:15.555Z,26.00
2023-05-02T13:13:18.392Z,26.42
2023-05-02T13:14:20.725Z,26.50
2023-05-02T13:15:23.536Z,26.32
2023-05-02T13:16:26.165Z,26.13
2023-05-02T13:17:29.847Z,26.22
2023-05-02T13:18:32.380Z,26.02
2023-05-02T13:19:35.121Z,25.73
2023-05-02T13:20:38.032Z,25.89
2023-05-02T13:21:40.465Z,26.48
2023-05-02T13:22:42.806Z,26.57
2023-05-02T13:23:47.411Z,26.56
2023-05-02T13:24:49.682Z,27.12
2023-05-02T13:25:52.029Z,27.57
2023-05-02T13:26:54.332Z,27.75
2023-05-02T13:27:57.665Z,26.71
2023-05-02T13:28:59.927Z,26.73
2023-05-02T13:30:04.215Z,27.38
2023-05-02T13:31:07.720Z,27.33
2023-05-02T13:32:11.251Z,27.31
2023-05-02T13:33:13.983Z,27.21
2023-05-02T13:34:16.543Z,26.90
2023-05-02T13:35:18.874Z,26.91
2023-05-02T13:36:21.281Z,28.08
2023-05-02T13:37:24.061Z,28.31
2023-05-02T13:38:27.488Z,27.06
2023-05-02T13:39:29.731Z,26.71
2023-05-02T13:40:32.352Z,27.35
2023-05-02T13:41:34.898Z,27.28
2023-05-02T13:42:37.222Z,27.07
2023-05-02T13:43:39.742Z,27.48
2023-05-02T13:44:41.960Z,27.20
2023-05-02T13:45:44.320Z,27.02
2023-05-02T13:46:48.035Z,27.01
2023-05-02T13:47:50.457Z,27.60
2023-05-02T13:48:52.640Z,27.48
2023-05-02T13:49:55.379Z,27.78
2023-05-02T13:50:57.828Z,27.81
2023-05-02T13:52:00.559Z,28.14
2023-05-02T13:53:03.369Z,27.95
2023-05-02T13:54:05.789Z,27.87
2023-05-02T13:55:08.662Z,28.55
2023-05-02T13:56:11.785Z,28.15
2023-05-02T13:57:13.994Z,27.17
2023-05-02T13:58:17.055Z,27.75
2023-05-02T13:59:19.449Z,27.74
2023-05-02T14:00:21.625Z,27.50
2023-05-02T14:01:24.694Z,27.66
2023-05-02T14:02:27.128Z,27.58
2023-05-02T14:03:29.576Z,27.11
2023-05-02T14:04:32.416Z,27.00
2023-05-02T14:05:34.622Z,27.33
2023-05-02T14:06:38.242Z,27.51
2023-05-02T14:07:41.018Z,27.40
2023-05-02T14:08:43.331Z,27.57
2023-05-02T14:09:45.554Z,27.97
2023-05-02T14:10:48.886Z,27.32
2023-05-02T14:11:52.228Z,27.54
2023-05-02T14:12:54.652Z,27.27
2023-05-02T14:13:57.384Z,27.35
2023-05-02T14:15:00.293Z,27.87
2023-05-02T14:16:02.943Z,27.93
2023-05-02T14:17:05.300Z,28.30
2023-05-02T14:18:07.643Z,27.79
2023-05-02T14:19:09.922Z,27.56
2023-05-02T14:20:12.557Z,27.74
2023-05-02T14:21:15.166Z,28.05
2023-05-02T14:22:17.394Z,27.44
2023-05-02T14:23:19.595Z,27.18
2023-05-02T14:24:21.869Z,27.09
2023-05-02T14:25:24.112Z,28.04
2023-05-02T14:26:26.385Z,27.88
2023-05-02T14:27:28.679Z,28.03
2023-05-02T14:28:30.881Z,27.62
2023-05-02T14:29:35.827Z,27.54
2023-05-02T14:30:46.333Z,27.59
2023-05-02T14:31:50.627Z,27.42
2023-05-02T14:32:55.687Z,27.59
2023-05-02T14:34:01.450Z,28.04
2023-05-02T14:35:07.833Z,27.81
2023-05-02T14:36:12.197Z,27.73
2023-05-02T14:37:16.090Z,28.25
2023-05-02T14:38:19.382Z,28.66
2023-05-02T14:39:22.044Z,27.97
2023-05-02T14:40:27.063Z,27.85
2023-05-02T14:41:30.813Z,27.94
2023-05-02T14:42:37.702Z,27.87
2023-05-02T14:43:40.435Z,28.35
2023-05-02T14:44:45.704Z,27.40
2023-05-02T14:45:53.132Z,27.53
2023-05-02T14:46:58.061Z,28.13
2023-05-02T14:48:03.357Z,27.93
2023-05-02T14:49:11.208Z,28.23
2023-05-02T14:50:17.289Z,27.30
2023-05-02T14:51:19.811Z,27.69
2023-05-02T14:52:23.414Z,27.68
2023-05-02T14:53:27.395Z,27.83
2023-05-02T14:54:31.414Z,27.71
2023-05-02T14:55:36.710Z,28.07
2023-05-02T14:56:41.252Z,27.81
2023-05-02T14:57:47.071Z,28.00
2023-05-02T14:58:54.146Z,27.68
2023-05-02T15:00:01.912Z,28.18
2023-05-02T15:01:09.311Z,28.51
2023-05-02T15:02:12.293Z,27.90
2023-05-02T15:03:19.412Z,27.63
2023-05-02T15:04:23.853Z,27.58
2023-05-02T15:05:28.310Z,27.93
2023-05-02T15:06:34.980Z,27.99
2023-05-02T15:07:40.402Z,28.21
2023-05-02T15:08:42.716Z,27.83
2023-05-02T15:09:51.191Z,28.02
2023-05-02T15:10:56.408Z,28.04
2023-05-02T15:12:02.303Z,28.12
2023-05-02T15:13:09.572Z,28.16
2023-05-02T15:14:16.478Z,28.48
2023-05-02T15:15:19.769Z,28.25
2023-05-02T15:16:22.581Z,28.18
2023-05-02T15:17:26.132Z,28.31
2023-05-02T15:18:31.574Z,27.96
2023-05-02T15:19:39.802Z,28.42
2023-05-02T15:20:45.326Z,28.28
2023-05-02T15:21:53.072Z,28.95
2023-05-02T15:22:58.178Z,28.32
2023-05-02T15:24:02.016Z,27.98
2023-05-02T15:25:09.718Z,28.38
2023-05-02T15:26:15.130Z,28.60
2023-05-02T15:27:20.747Z,28.70
2023-05-02T15:28:25.817Z,28.98
2023-05-02T15:29:31.665Z,29.12
2023-05-02T15:30:36.281Z,28.70
2023-05-02T15:31:41.839Z,28.56
2023-05-02T15:32:48.364Z,28.19
2023-05-02T15:33:56.698Z,28.17
2023-05-02T15:34:59.247Z,28.14
2023-05-02T15:36:03.712Z,28.36
2023-05-02T15:37:10.742Z,28.59
2023-05-02T15:38:18.990Z,28.60
2023-05-02T15:39:25.263Z,28.84
2023-05-02T15:40:33.715Z,28.79
2023-05-02T15:41:38.361Z,28.99
2023-05-02T15:42:45.285Z,28.56
2023-05-02T15:43:48.614Z,28.80
2023-05-02T15:44:53.283Z,28.58
2023-05-02T15:45:58.659Z,29.17
2023-05-02T15:47:01.781Z,28.90
2023-05-02T15:48:07.264Z,29.52
2023-05-02T15:49:12.860Z,29.53
2023-05-02T15:50:21.880Z,29.63
2023-05-02T15:51:27.996Z,29.30
2023-05-02T15:52:31.492Z,29.16
2023-05-02T15:53:36.260Z,29.36
2023-05-02T15:54:41.450Z,29.49
2023-05-02T15:55:53.245Z,29.46
2023-05-02T15:57:00.977Z,29.49
2023-05-02T15:58:05.685Z,29.13
2023-05-02T15:59:11.308Z,29.52
2023-05-02T16:00:18.181Z,29.64
2023-05-02T16:01:22.156Z,29.62
2023-05-02T16:02:24.958Z,29.56
2023-05-02T16:03:30.171Z,30.06
2023-05-02T16:04:36.542Z,30.18
2023-05-02T16:05:41.149Z,29.98
2023-05-02T16:06:45.173Z,30.01
2023-05-02T16:07:49.096Z,30.30
2023-05-02T16:08:52.159Z,30.49
2023-05-02T16:10:01.438Z,30.43
2023-05-02T16:11:04.939Z,30.79
2023-05-02T16:12:07.901Z,30.48
2023-05-02T16:13:12.389Z,30.76
2023-05-02T16:14:16.654Z,30.69
2023-05-02T16:15:26.146Z,30.68
2023-05-02T16:16:28.593Z,30.90
2023-05-02T16:17:33.569Z,30.86
2023-05-02T16:18:36.677Z,31.06
2023-05-02T16:19:39.852Z,30.98
2023-05-02T16:20:46.294Z,30.96
2023-05-02T16:21:52.783Z,31.08
2023-05-02T16:22:55.800Z,31.40
2023-05-02T16:23:59.122Z,31.41
2023-05-02T16:25:04.559Z,31.29
2023-05-02T16:26:10.846Z,31.22
2023-05-02T16:27:14.142Z,31.37
2023-05-02T16:28:18.911Z,31.75
2023-05-02T16:29:22.604Z,31.88
2023-05-02T16:30:27.285Z,31.91
2023-05-02T16:31:34.023Z,32.03
2023-05-02T16:32:36.921Z,31.98
2023-05-02T16:33:41.631Z,32.16
2023-05-02T16:34:46.845Z,31.94
2023-05-02T16:35:52.131Z,32.13
2023-05-02T16:36:59.923Z,32.25
2023-05-02T16:38:03.434Z,32.54
2023-05-02T16:39:06.936Z,32.68
2023-05-02T16:40:13.758Z,32.57
2023-05-02T16:41:21.230Z,32.44
2023-05-02T16:42:28.292Z,32.68
2023-05-02T16:43:30.984Z,32.88
2023-05-02T16:44:36.010Z,32.52
2023-05-02T16:45:39.692Z,32.62
2023-05-02T16:46:45.640Z,32.67
2023-05-02T16:47:51.774Z,33.21
2023-05-02T16:48:56.535Z,33.09
2023-05-02T16:50:01.884Z,33.14
2023-05-02T16:51:08.299Z,33.15
2023-05-02T16:52:12.707Z,33.08
2023-05-02T16:53:17.986Z,33.43
2023-05-02T16:54:22.792Z,33.60
2023-05-02T16:55:28.544Z,34.07
2023-05-02T16:56:33.540Z,33.93
2023-05-02T16:57:39.636Z,33.74
2023-05-02T16:58:43.850Z,33.98
2023-05-02T16:59:50.102Z,33.85
2023-05-02T17:00:54.401Z,33.83
2023-05-02T17:02:04.484Z,33.94
2023-05-02T17:03:08.757Z,34.07
2023-05-02T17:04:11.710Z,34.00
2023-05-02T17:05:15.835Z,34.22
2023-05-02T17:06:20.358Z,34.14
2023-05-02T17:07:26.886Z,34.28
2023-05-02T17:08:33.622Z,34.66
2023-05-02T17:09:44.238Z,34.76
2023-05-02T17:10:50.660Z,34.50
2023-05-02T17:11:56.058Z,34.64
2023-05-02T17:13:03.046Z,34.80
2023-05-02T17:14:11.890Z,34.39
2023-05-02T17:15:17.126Z,34.69
2023-05-02T17:16:20.510Z,34.63
2023-05-02T17:17:28.990Z,34.85
2023-05-02T17:18:32.602Z,34.94
2023-05-02T17:19:43.082Z,35.02
2023-05-02T17:20:53.251Z,34.98
2023-05-02T17:22:03.369Z,35.39
2023-05-02T17:23:05.726Z,35.26
2023-05-02T17:24:10.694Z,35.21
2023-05-02T17:25:16.995Z,34.92
2023-05-02T17:26:23.575Z,35.47
2023-05-02T17:27:28.461Z,35.35
2023-05-02T17:28:33.611Z,35.46
2023-05-02T17:29:48.075Z,35.52
2023-05-02T17:31:01.589Z,35.62
2023-05-02T17:32:06.408Z,35.69
2023-05-02T17:33:09.686Z,35.85
2023-05-02T17:34:13.925Z,35.81
2023-05-02T17:35:18.273Z,35.81
2023-05-02T17:36:23.126Z,35.97
2023-05-02T17:37:27.742Z,36.10
2023-05-02T17:38:33.072Z,35.92
2023-05-02T17:39:50.700Z,36.18
2023-05-02T17:40:56.847Z,36.02
2023-05-02T17:42:10.000Z,35.76
2023-05-02T17:43:12.221Z,36.05
2023-05-02T17:44:16.250Z,36.39
2023-05-02T17:45:27.076Z,36.08
2023-05-02T17:46:30.427Z,35.95
2023-05-02T17:47:36.711Z,36.44
2023-05-02T17:48:46.193Z,36.54
2023-05-02T17:51:14.945Z,36.38
2023-05-02T17:52:21.827Z,36.16
2023-05-02T17:53:31.914Z,36.19
2023-05-02T17:54:38.439Z,36.39
2023-05-02T17:55:41.101Z,36.73
2023-05-02T17:56:49.264Z,36.61
2023-05-02T17:58:01.638Z,36.51
2023-05-02T17:59:04.477Z,36.41
2023-05-02T18:01:34.963Z,36.59
2023-05-02T18:02:38.591Z,36.75
2023-05-02T18:03:45.446Z,37.02
2023-05-02T18:04:51.416Z,36.75
2023-05-02T18:05:58.048Z,37.01
2023-05-02T18:07:06.123Z,37.07
2023-05-02T18:08:14.678Z,37.66
2023-05-02T18:09:21.329Z,36.78
2023-05-02T18:10:28.931Z,37.06
2023-05-02T18:11:38.944Z,37.10
2023-05-02T18:12:45.949Z,36.92
2023-05-02T18:13:51.395Z,37.00
2023-05-02T18:14:56.195Z,37.05
2023-05-02T18:16:02.707Z,37.17
2023-05-02T18:17:07.659Z,37.46
2023-05-02T18:18:15.020Z,37.31
2023-05-02T18:19:20.931Z,37.31
2023-05-02T18:20:25.738Z,37.50
2023-05-02T18:21:31.194Z,37.73
2023-05-02T18:22:33.659Z,37.54
2023-05-02T18:23:36.183Z,37.77
2023-05-02T18:24:38.625Z,37.95
2023-05-02T18:25:40.802Z,38.16
2023-05-02T18:26:43.787Z,38.20
2023-05-02T18:27:46.170Z,38.07
2023-05-02T18:28:48.361Z,37.99
2023-05-02T18:29:51.179Z,38.24
2023-05-02T18:30:53.632Z,38.35
2023-05-02T18:31:55.990Z,38.44
2023-05-02T18:32:58.344Z,38.47
2023-05-02T18:34:00.771Z,38.40
2023-05-02T18:35:05.274Z,38.68
2023-05-02T18:36:08.733Z,38.88
2023-05-02T18:37:11.232Z,38.85
2023-05-02T18:38:13.530Z,38.75
2023-05-02T18:39:16.308Z,38.76
2023-05-02T18:40:19.133Z,38.94
2023-05-02T18:41:22.245Z,38.87
2023-05-02T18:42:25.088Z,38.97
2023-05-02T18:43:29.352Z,39.01
2023-05-02T18:44:32.938Z,39.21
2023-05-02T18:45:35.324Z,39.03
2023-05-02T18:46:38.693Z,39.43
2023-05-02T18:47:41.403Z,39.50
2023-05-02T18:48:45.514Z,39.58
2023-05-02T18:49:47.964Z,39.46
2023-05-02T18:50:52.128Z,39.83
2023-05-02T18:51:54.564Z,40.03
2023-05-02T18:52:57.316Z,40.09
2023-05-02T18:53:59.550Z,40.00
2023-05-02T18:55:02.639Z,39.95
2023-05-02T18:56:14.633Z,40.06
2023-05-02T18:57:17.969Z,40.16
2023-05-02T18:58:21.107Z,40.29
2023-05-02T18:59:24.578Z,40.25
2023-05-02T19:00:29.994Z,40.53
2023-05-02T19:01:32.437Z,40.52
2023-05-02T19:02:34.828Z,40.60
2023-05-02T19:03:37.019Z,40.79
2023-05-02T19:04:39.369Z,40.75
2023-05-02T19:05:42.801Z,40.91
2023-05-02T19:06:45.641Z,41.06
2023-05-02T19:07:48.518Z,40.89
2023-05-02T19:08:51.386Z,41.12
2023-05-02T19:09:53.886Z,41.14
2023-05-02T19:10:56.712Z,41.30
2023-05-02T19:11:59.091Z,41.39
2023-05-02T19:13:01.905Z,41.49
2023-05-02T19:14:05.417Z,41.42
2023-05-02T19:15:08.193Z,41.70
2023-05-02T19:16:12.069Z,41.73
2023-05-02T19:17:14.469Z,41.74
2023-05-02T19:18:17.671Z,41.76
2023-05-02T19:19:20.565Z,41.78
2023-05-02T19:20:23.579Z,41.96
2023-05-02T19:21:26.016Z,42.08
2023-05-02T19:22:29.075Z,42.10
2023-05-02T19:23:32.465Z,42.37
2023-05-02T19:24:38.420Z,42.42
2023-05-02T19:25:41.658Z,42.48
2023-05-02T19:26:44.584Z,42.56
2023-05-02T19:27:47.553Z,42.72
2023-05-02T19:28:49.954Z,42.56
2023-05-02T19:29:53.986Z,42.83
2023-05-02T19:30:58.139Z,42.82
2023-05-02T19:32:00.556Z,42.84
2023-05-02T19:33:04.029Z,42.97
2023-05-02T19:34:06.731Z,43.08
2023-05-02T19:36:19.674Z,43.19
2023-05-02T19:37:22.823Z,43.24
2023-05-02T19:38:26.572Z,43.48
2023-05-02T19:39:30.036Z,43.60
2023-05-02T19:40:33.481Z,43.66
2023-05-02T19:41:36.351Z,43.59
2023-05-02T19:42:39.651Z,43.73
2023-05-02T19:43:42.301Z,43.78
2023-05-02T19:44:45.218Z,43.91
2023-05-02T19:45:48.023Z,43.95
2023-05-02T19:46:50.616Z,43.98
2023-05-02T19:47:53.711Z,43.99
2023-05-02T19:48:56.226Z,44.15
2023-05-02T19:50:00.558Z,44.18
2023-05-02T19:51:06.295Z,44.26
2023-05-02T19:52:09.080Z,44.32
2023-05-02T19:53:12.503Z,44.26
2023-05-02T19:54:15.253Z,44.43
2023-05-02T19:55:18.086Z,44.51
2023-05-02T19:56:20.905Z,44.47
2023-05-02T19:57:23.219Z,44.24
2023-05-02T19:58:26.457Z,44.32
2023-05-02T19:59:28.919Z,44.49
2023-05-02T20:00:31.877Z,44.60
2023-05-02T20:01:35.129Z,44.72
2023-05-02T20:02:38.111Z,44.58
2023-05-02T20:03:40.664Z,44.49
2023-05-02T20:04:43.167Z,44.43
2023-05-02T20:05:48.644Z,44.44
2023-05-02T20:06:51.884Z,44.50
2023-05-02T20:07:54.238Z,44.80
2023-05-02T20:08:56.592Z,44.86
2023-05-02T20:09:59.703Z,44.94
2023-05-02T20:11:02.328Z,45.04
2023-05-02T20:12:06.153Z,45.10
2023-05-02T20:13:10.698Z,44.88
2023-05-02T20:14:13.172Z,44.91
2023-05-02T20:15:15.548Z,44.92
2023-05-02T20:16:18.835Z,45.08
2023-05-02T20:17:21.664Z,45.10
2023-05-02T20:18:24.527Z,45.25
2023-05-02T20:19:27.211Z,45.30
2023-05-02T20:20:30.559Z,45.33
2023-05-02T20:21:32.925Z,45.45
2023-05-02T20:22:35.285Z,45.50
2023-05-02T20:23:37.604Z,45.49
2023-05-02T20:24:39.910Z,45.47
2023-05-02T20:25:44.304Z,45.38
2023-05-02T20:26:46.887Z,45.73
2023-05-02T20:29:00.761Z,45.57
2023-05-02T20:30:04.508Z,45.71
2023-05-02T20:31:08.241Z,45.53
2023-05-02T20:32:11.119Z,45.87
2023-05-02T20:33:16.248Z,45.72
2023-05-02T20:34:18.626Z,45.81
2023-05-02T20:35:21.551Z,45.94
2023-05-02T20:36:23.950Z,45.84
2023-05-02T20:37:27.523Z,45.96
2023-05-02T20:38:29.796Z,46.14
2023-05-02T20:39:33.089Z,46.08
2023-05-02T20:40:39.036Z,46.19
2023-05-02T20:41:41.192Z,46.15
2023-05-02T20:42:44.127Z,46.02
2023-05-02T20:43:47.324Z,46.07
2023-05-02T20:44:57.668Z,46.07
2023-05-02T20:46:03.661Z,46.08
2023-05-02T20:47:05.857Z,46.08
2023-05-02T20:48:08.147Z,46.22
2023-05-02T20:49:11.041Z,46.23